sensor_id;sensor_type;location;lat;lon;timestamp;P1;durP1;ratioP1;P2;durP2;ratioP2
55146;SDS011;41039;49.830;23.988;2024-01-15T00:00:15;6.03;;;3.97;;
55146;SDS011;41039;49.830;23.988;2024-01-15T00:02:41;5.53;;;4.22;;
55146;SDS011;41039;49.830;23.988;2024-01-15T00:05:06;4.70;;;3.88;;
55146;SDS011;41039;49.830;23.988;2024-01-15T00:07:32;4.57;;;3.83;;
55146;SDS011;41039;49.830;23.988;2024-01-15T00:09:57;4.07;;;3.57;;
55146;SDS011;41039;49.830;23.988;2024-01-15T00:12:22;4.63;;;3.60;;
55146;SDS011;41039;49.830;23.988;2024-01-15T00:14:47;4.80;;;3.80;;
55146;SDS011;41039;49.830;23.988;2024-01-15T00:17:13;4.15;;;3.55;;
55146;SDS011;41039;49.830;23.988;2024-01-15T00:19:38;5.18;;;3.65;;
55146;SDS011;41039;49.830;23.988;2024-01-15T00:22:03;4.13;;;3.38;;
55146;SDS011;41039;49.830;23.988;2024-01-15T00:24:29;4.22;;;3.47;;
55146;SDS011;41039;49.830;23.988;2024-01-15T00:26:54;4.53;;;3.38;;
55146;SDS011;41039;49.830;23.988;2024-01-15T00:29:20;4.38;;;3.40;;
55146;SDS011;41039;49.830;23.988;2024-01-15T00:31:45;4.25;;;3.40;;
55146;SDS011;41039;49.830;23.988;2024-01-15T00:34:11;5.30;;;3.97;;
55146;SDS011;41039;49.830;23.988;2024-01-15T00:36:36;3.80;;;3.10;;
55146;SDS011;41039;49.830;23.988;2024-01-15T00:39:01;4.07;;;3.30;;
55146;SDS011;41039;49.830;23.988;2024-01-15T00:41:26;3.47;;;2.83;;
55146;SDS011;41039;49.830;23.988;2024-01-15T00:43:53;4.90;;;3.10;;
55146;SDS011;41039;49.830;23.988;2024-01-15T00:46:18;3.90;;;3.15;;
55146;SDS011;41039;49.830;23.988;2024-01-15T00:48:43;4.57;;;3.63;;
55146;SDS011;41039;49.830;23.988;2024-01-15T00:51:08;3.93;;;3.20;;
55146;SDS011;41039;49.830;23.988;2024-01-15T00:53:33;3.53;;;3.03;;
55146;SDS011;41039;49.830;23.988;2024-01-15T00:55:59;4.47;;;3.20;;
55146;SDS011;41039;49.830;23.988;2024-01-15T00:58:24;4.65;;;3.47;;
55146;SDS011;41039;49.830;23.988;2024-01-15T01:00:50;3.40;;;2.80;;
55146;SDS011;41039;49.830;23.988;2024-01-15T01:03:15;3.90;;;2.90;;
55146;SDS011;41039;49.830;23.988;2024-01-15T01:05:40;3.10;;;2.63;;
55146;SDS011;41039;49.830;23.988;2024-01-15T01:08:05;3.00;;;2.70;;
55146;SDS011;41039;49.830;23.988;2024-01-15T01:10:31;4.60;;;3.30;;
55146;SDS011;41039;49.830;23.988;2024-01-15T01:12:56;3.90;;;2.97;;
55146;SDS011;41039;49.830;23.988;2024-01-15T01:15:21;3.60;;;3.03;;
55146;SDS011;41039;49.830;23.988;2024-01-15T01:17:46;4.10;;;3.10;;
55146;SDS011;41039;49.830;23.988;2024-01-15T01:20:12;3.83;;;3.20;;
55146;SDS011;41039;49.830;23.988;2024-01-15T01:22:37;3.67;;;3.13;;
55146;SDS011;41039;49.830;23.988;2024-01-15T01:25:02;4.00;;;3.08;;
55146;SDS011;41039;49.830;23.988;2024-01-15T01:27:28;3.55;;;2.92;;
55146;SDS011;41039;49.830;23.988;2024-01-15T01:29:53;3.67;;;2.72;;
55146;SDS011;41039;49.830;23.988;2024-01-15T01:32:18;5.03;;;2.72;;
55146;SDS011;41039;49.830;23.988;2024-01-15T01:34:43;3.83;;;2.90;;
55146;SDS011;41039;49.830;23.988;2024-01-15T01:37:09;4.32;;;3.05;;
55146;SDS011;41039;49.830;23.988;2024-01-15T01:39:34;3.88;;;2.97;;
55146;SDS011;41039;49.830;23.988;2024-01-15T01:42:00;4.10;;;3.17;;
55146;SDS011;41039;49.830;23.988;2024-01-15T01:44:25;4.00;;;3.00;;
55146;SDS011;41039;49.830;23.988;2024-01-15T01:46:50;3.40;;;2.77;;
55146;SDS011;41039;49.830;23.988;2024-01-15T01:49:15;3.83;;;2.97;;
55146;SDS011;41039;49.830;23.988;2024-01-15T01:51:41;3.72;;;2.83;;
55146;SDS011;41039;49.830;23.988;2024-01-15T01:54:06;4.10;;;3.20;;
55146;SDS011;41039;49.830;23.988;2024-01-15T01:56:33;3.25;;;2.53;;
55146;SDS011;41039;49.830;23.988;2024-01-15T01:58:58;3.53;;;2.75;;
55146;SDS011;41039;49.830;23.988;2024-01-15T02:01:23;3.60;;;2.63;;
55146;SDS011;41039;49.830;23.988;2024-01-15T02:03:49;3.35;;;2.80;;
55146;SDS011;41039;49.830;23.988;2024-01-15T02:06:14;3.73;;;2.87;;
55146;SDS011;41039;49.830;23.988;2024-01-15T02:08:39;3.77;;;2.70;;
55146;SDS011;41039;49.830;23.988;2024-01-15T02:11:04;3.45;;;2.65;;
55146;SDS011;41039;49.830;23.988;2024-01-15T02:13:30;3.50;;;2.80;;
55146;SDS011;41039;49.830;23.988;2024-01-15T02:15:55;3.03;;;2.60;;
55146;SDS011;41039;49.830;23.988;2024-01-15T02:18:20;3.20;;;2.60;;
55146;SDS011;41039;49.830;23.988;2024-01-15T02:20:45;3.42;;;2.75;;
55146;SDS011;41039;49.830;23.988;2024-01-15T02:23:14;3.43;;;2.50;;
55146;SDS011;41039;49.830;23.988;2024-01-15T02:25:40;3.08;;;2.58;;
55146;SDS011;41039;49.830;23.988;2024-01-15T02:28:06;4.50;;;3.20;;
55146;SDS011;41039;49.830;23.988;2024-01-15T02:30:32;3.53;;;2.72;;
55146;SDS011;41039;49.830;23.988;2024-01-15T02:32:59;3.90;;;2.75;;
55146;SDS011;41039;49.830;23.988;2024-01-15T02:35:24;3.78;;;2.40;;
55146;SDS011;41039;49.830;23.988;2024-01-15T02:37:50;3.50;;;2.60;;
55146;SDS011;41039;49.830;23.988;2024-01-15T02:40:15;3.13;;;2.83;;
55146;SDS011;41039;49.830;23.988;2024-01-15T02:42:40;3.33;;;2.60;;
55146;SDS011;41039;49.830;23.988;2024-01-15T02:45:06;3.50;;;2.63;;
55146;SDS011;41039;49.830;23.988;2024-01-15T02:47:31;3.65;;;2.90;;
55146;SDS011;41039;49.830;23.988;2024-01-15T02:49:56;3.97;;;2.77;;
55146;SDS011;41039;49.830;23.988;2024-01-15T02:52:21;3.33;;;2.60;;
55146;SDS011;41039;49.830;23.988;2024-01-15T02:54:47;3.17;;;2.63;;
55146;SDS011;41039;49.830;23.988;2024-01-15T02:57:12;3.30;;;2.50;;
55146;SDS011;41039;49.830;23.988;2024-01-15T02:59:37;3.03;;;2.30;;
55146;SDS011;41039;49.830;23.988;2024-01-15T03:02:02;3.30;;;2.50;;
55146;SDS011;41039;49.830;23.988;2024-01-15T03:04:27;3.47;;;2.40;;
55146;SDS011;41039;49.830;23.988;2024-01-15T03:06:53;2.87;;;2.07;;
55146;SDS011;41039;49.830;23.988;2024-01-15T03:09:18;3.47;;;2.77;;
55146;SDS011;41039;49.830;23.988;2024-01-15T03:11:43;2.80;;;2.20;;
55146;SDS011;41039;49.830;23.988;2024-01-15T03:14:08;3.08;;;2.38;;
55146;SDS011;41039;49.830;23.988;2024-01-15T03:16:34;3.67;;;2.83;;
55146;SDS011;41039;49.830;23.988;2024-01-15T03:18:59;2.90;;;2.10;;
55146;SDS011;41039;49.830;23.988;2024-01-15T03:21:24;3.03;;;2.37;;
55146;SDS011;41039;49.830;23.988;2024-01-15T03:23:49;2.70;;;2.23;;
55146;SDS011;41039;49.830;23.988;2024-01-15T03:26:14;3.20;;;2.17;;
55146;SDS011;41039;49.830;23.988;2024-01-15T03:28:40;3.95;;;2.65;;
55146;SDS011;41039;49.830;23.988;2024-01-15T03:31:05;2.85;;;2.15;;
55146;SDS011;41039;49.830;23.988;2024-01-15T03:33:30;3.17;;;2.07;;
55146;SDS011;41039;49.830;23.988;2024-01-15T03:35:56;3.58;;;2.50;;
55146;SDS011;41039;49.830;23.988;2024-01-15T03:38:22;3.37;;;2.30;;
55146;SDS011;41039;49.830;23.988;2024-01-15T03:40:47;2.92;;;2.30;;
55146;SDS011;41039;49.830;23.988;2024-01-15T03:43:12;3.10;;;2.20;;
55146;SDS011;41039;49.830;23.988;2024-01-15T03:45:38;3.43;;;2.40;;
55146;SDS011;41039;49.830;23.988;2024-01-15T03:48:03;2.67;;;2.13;;
55146;SDS011;41039;49.830;23.988;2024-01-15T03:50:28;2.55;;;2.03;;
55146;SDS011;41039;49.830;23.988;2024-01-15T03:52:53;2.77;;;2.10;;
55146;SDS011;41039;49.830;23.988;2024-01-15T03:55:19;3.03;;;2.30;;
55146;SDS011;41039;49.830;23.988;2024-01-15T03:57:44;2.60;;;2.13;;
55146;SDS011;41039;49.830;23.988;2024-01-15T04:00:09;2.73;;;2.07;;
55146;SDS011;41039;49.830;23.988;2024-01-15T04:02:34;2.92;;;2.00;;
55146;SDS011;41039;49.830;23.988;2024-01-15T04:05:00;3.38;;;2.58;;
55146;SDS011;41039;49.830;23.988;2024-01-15T04:07:25;3.07;;;2.27;;
55146;SDS011;41039;49.830;23.988;2024-01-15T04:09:50;2.60;;;2.03;;
55146;SDS011;41039;49.830;23.988;2024-01-15T04:12:15;2.88;;;2.30;;
55146;SDS011;41039;49.830;23.988;2024-01-15T04:14:41;2.40;;;1.57;;
55146;SDS011;41039;49.830;23.988;2024-01-15T04:17:06;3.30;;;2.20;;
55146;SDS011;41039;49.830;23.988;2024-01-15T04:19:31;3.17;;;2.17;;
55146;SDS011;41039;49.830;23.988;2024-01-15T04:21:56;3.10;;;2.03;;
55146;SDS011;41039;49.830;23.988;2024-01-15T04:24:21;2.87;;;2.07;;
55146;SDS011;41039;49.830;23.988;2024-01-15T04:26:47;2.67;;;2.05;;
55146;SDS011;41039;49.830;23.988;2024-01-15T04:29:12;2.63;;;2.10;;
55146;SDS011;41039;49.830;23.988;2024-01-15T04:31:37;2.55;;;1.92;;
55146;SDS011;41039;49.830;23.988;2024-01-15T04:34:02;2.50;;;1.70;;
55146;SDS011;41039;49.830;23.988;2024-01-15T04:36:28;2.75;;;1.75;;
55146;SDS011;41039;49.830;23.988;2024-01-15T04:38:53;3.03;;;2.15;;
55146;SDS011;41039;49.830;23.988;2024-01-15T04:41:18;2.60;;;2.10;;
55146;SDS011;41039;49.830;23.988;2024-01-15T04:43:43;2.85;;;2.28;;
55146;SDS011;41039;49.830;23.988;2024-01-15T04:46:09;3.17;;;1.93;;
55146;SDS011;41039;49.830;23.988;2024-01-15T04:48:34;2.90;;;1.90;;
55146;SDS011;41039;49.830;23.988;2024-01-15T04:50:59;2.47;;;1.80;;
55146;SDS011;41039;49.830;23.988;2024-01-15T04:53:25;2.80;;;2.10;;
55146;SDS011;41039;49.830;23.988;2024-01-15T04:55:50;2.88;;;2.00;;
55146;SDS011;41039;49.830;23.988;2024-01-15T04:58:15;2.30;;;1.70;;
55146;SDS011;41039;49.830;23.988;2024-01-15T05:00:41;3.03;;;1.77;;
55146;SDS011;41039;49.830;23.988;2024-01-15T05:03:06;3.05;;;1.98;;
55146;SDS011;41039;49.830;23.988;2024-01-15T05:05:31;3.37;;;1.83;;
55146;SDS011;41039;49.830;23.988;2024-01-15T05:07:56;2.27;;;1.80;;
55146;SDS011;41039;49.830;23.988;2024-01-15T05:10:21;2.72;;;1.77;;
55146;SDS011;41039;49.830;23.988;2024-01-15T05:12:47;2.63;;;1.90;;
55146;SDS011;41039;49.830;23.988;2024-01-15T05:15:12;2.60;;;1.83;;
55146;SDS011;41039;49.830;23.988;2024-01-15T05:17:37;2.40;;;1.80;;
55146;SDS011;41039;49.830;23.988;2024-01-15T05:20:02;3.10;;;1.83;;
55146;SDS011;41039;49.830;23.988;2024-01-15T05:22:28;2.47;;;2.00;;
55146;SDS011;41039;49.830;23.988;2024-01-15T05:24:53;2.80;;;1.92;;
55146;SDS011;41039;49.830;23.988;2024-01-15T05:27:18;2.80;;;2.07;;
55146;SDS011;41039;49.830;23.988;2024-01-15T05:29:44;2.63;;;1.90;;
55146;SDS011;41039;49.830;23.988;2024-01-15T05:32:09;2.53;;;1.73;;
55146;SDS011;41039;49.830;23.988;2024-01-15T05:34:34;2.58;;;1.50;;
55146;SDS011;41039;49.830;23.988;2024-01-15T05:37:00;3.37;;;2.37;;
55146;SDS011;41039;49.830;23.988;2024-01-15T05:39:25;2.50;;;1.83;;
55146;SDS011;41039;49.830;23.988;2024-01-15T05:41:50;2.53;;;1.80;;
55146;SDS011;41039;49.830;23.988;2024-01-15T05:44:15;2.40;;;1.80;;
55146;SDS011;41039;49.830;23.988;2024-01-15T05:46:41;2.60;;;1.90;;
55146;SDS011;41039;49.830;23.988;2024-01-15T05:49:06;2.20;;;1.83;;
55146;SDS011;41039;49.830;23.988;2024-01-15T05:51:31;1.83;;;1.23;;
55146;SDS011;41039;49.830;23.988;2024-01-15T05:53:56;2.15;;;1.73;;
55146;SDS011;41039;49.830;23.988;2024-01-15T05:56:21;2.90;;;2.00;;
55146;SDS011;41039;49.830;23.988;2024-01-15T05:58:49;2.53;;;1.77;;
55146;SDS011;41039;49.830;23.988;2024-01-15T06:01:14;2.73;;;1.97;;
55146;SDS011;41039;49.830;23.988;2024-01-15T06:03:39;2.67;;;1.80;;
55146;SDS011;41039;49.830;23.988;2024-01-15T06:06:04;2.37;;;1.50;;
55146;SDS011;41039;49.830;23.988;2024-01-15T06:08:30;3.42;;;2.00;;
55146;SDS011;41039;49.830;23.988;2024-01-15T06:10:56;2.10;;;1.50;;
55146;SDS011;41039;49.830;23.988;2024-01-15T06:13:21;2.42;;;1.52;;
55146;SDS011;41039;49.830;23.988;2024-01-15T06:15:46;2.53;;;1.77;;
55146;SDS011;41039;49.830;23.988;2024-01-15T06:18:12;2.97;;;1.70;;
55146;SDS011;41039;49.830;23.988;2024-01-15T06:20:37;2.67;;;1.85;;
55146;SDS011;41039;49.830;23.988;2024-01-15T06:23:03;3.30;;;1.75;;
55146;SDS011;41039;49.830;23.988;2024-01-15T06:25:28;2.50;;;1.60;;
55146;SDS011;41039;49.830;23.988;2024-01-15T06:27:54;2.53;;;1.70;;
55146;SDS011;41039;49.830;23.988;2024-01-15T06:30:19;2.67;;;2.00;;
55146;SDS011;41039;49.830;23.988;2024-01-15T06:32:44;2.53;;;1.80;;
55146;SDS011;41039;49.830;23.988;2024-01-15T06:35:09;2.50;;;1.60;;
55146;SDS011;41039;49.830;23.988;2024-01-15T06:37:36;2.33;;;1.48;;
55146;SDS011;41039;49.830;23.988;2024-01-15T06:40:01;2.20;;;1.40;;
55146;SDS011;41039;49.830;23.988;2024-01-15T06:42:28;2.42;;;1.80;;
55146;SDS011;41039;49.830;23.988;2024-01-15T06:44:53;3.45;;;1.52;;
55146;SDS011;41039;49.830;23.988;2024-01-15T06:47:18;3.50;;;1.70;;
55146;SDS011;41039;49.830;23.988;2024-01-15T06:49:43;2.40;;;1.73;;
55146;SDS011;41039;49.830;23.988;2024-01-15T06:52:09;2.20;;;1.73;;
55146;SDS011;41039;49.830;23.988;2024-01-15T06:54:34;2.30;;;1.58;;
55146;SDS011;41039;49.830;23.988;2024-01-15T06:56:59;2.37;;;1.77;;
55146;SDS011;41039;49.830;23.988;2024-01-15T06:59:24;2.15;;;1.58;;
55146;SDS011;41039;49.830;23.988;2024-01-15T07:01:50;1.67;;;1.23;;
55146;SDS011;41039;49.830;23.988;2024-01-15T07:04:15;2.70;;;1.63;;
55146;SDS011;41039;49.830;23.988;2024-01-15T07:06:40;4.20;;;1.95;;
55146;SDS011;41039;49.830;23.988;2024-01-15T07:09:06;2.07;;;1.33;;
55146;SDS011;41039;49.830;23.988;2024-01-15T07:11:31;1.88;;;1.20;;
55146;SDS011;41039;49.830;23.988;2024-01-15T07:13:56;2.05;;;1.50;;
55146;SDS011;41039;49.830;23.988;2024-01-15T07:16:21;2.63;;;1.73;;
55146;SDS011;41039;49.830;23.988;2024-01-15T07:18:46;2.40;;;1.80;;
55146;SDS011;41039;49.830;23.988;2024-01-15T07:21:12;2.50;;;1.77;;
55146;SDS011;41039;49.830;23.988;2024-01-15T07:23:37;2.63;;;1.63;;
55146;SDS011;41039;49.830;23.988;2024-01-15T07:26:02;2.42;;;1.73;;
55146;SDS011;41039;49.830;23.988;2024-01-15T07:28:30;2.63;;;1.65;;
55146;SDS011;41039;49.830;23.988;2024-01-15T07:30:56;2.55;;;1.88;;
55146;SDS011;41039;49.830;23.988;2024-01-15T07:33:21;2.58;;;1.80;;
55146;SDS011;41039;49.830;23.988;2024-01-15T07:35:46;2.43;;;1.70;;
55146;SDS011;41039;49.830;23.988;2024-01-15T07:38:11;2.67;;;1.70;;
55146;SDS011;41039;49.830;23.988;2024-01-15T07:40:37;2.95;;;1.92;;
55146;SDS011;41039;49.830;23.988;2024-01-15T07:43:02;2.10;;;1.50;;
55146;SDS011;41039;49.830;23.988;2024-01-15T07:45:27;2.85;;;1.92;;
55146;SDS011;41039;49.830;23.988;2024-01-15T07:47:53;2.72;;;1.65;;
55146;SDS011;41039;49.830;23.988;2024-01-15T07:50:18;3.00;;;2.00;;
55146;SDS011;41039;49.830;23.988;2024-01-15T07:52:43;2.70;;;1.80;;
55146;SDS011;41039;49.830;23.988;2024-01-15T07:55:09;2.57;;;1.53;;
55146;SDS011;41039;49.830;23.988;2024-01-15T07:57:34;3.28;;;2.10;;
55146;SDS011;41039;49.830;23.988;2024-01-15T08:00:00;3.30;;;1.83;;
55146;SDS011;41039;49.830;23.988;2024-01-15T08:02:26;2.58;;;1.70;;
55146;SDS011;41039;49.830;23.988;2024-01-15T08:04:52;2.80;;;1.70;;
55146;SDS011;41039;49.830;23.988;2024-01-15T08:07:17;3.07;;;1.90;;
55146;SDS011;41039;49.830;23.988;2024-01-15T08:09:42;2.33;;;1.60;;
55146;SDS011;41039;49.830;23.988;2024-01-15T08:12:08;2.72;;;2.03;;
55146;SDS011;41039;49.830;23.988;2024-01-15T08:14:35;2.90;;;1.90;;
55146;SDS011;41039;49.830;23.988;2024-01-15T08:17:00;2.78;;;1.88;;
55146;SDS011;41039;49.830;23.988;2024-01-15T08:19:26;2.92;;;2.00;;
55146;SDS011;41039;49.830;23.988;2024-01-15T08:21:51;3.40;;;2.53;;
55146;SDS011;41039;49.830;23.988;2024-01-15T08:24:17;3.37;;;2.70;;
55146;SDS011;41039;49.830;23.988;2024-01-15T08:26:42;3.25;;;2.30;;
55146;SDS011;41039;49.830;23.988;2024-01-15T08:29:08;3.37;;;2.60;;
55146;SDS011;41039;49.830;23.988;2024-01-15T08:31:33;3.90;;;2.58;;
55146;SDS011;41039;49.830;23.988;2024-01-15T08:33:58;5.73;;;2.90;;
55146;SDS011;41039;49.830;23.988;2024-01-15T08:36:24;4.38;;;2.40;;
55146;SDS011;41039;49.830;23.988;2024-01-15T08:38:49;2.90;;;2.22;;
55146;SDS011;41039;49.830;23.988;2024-01-15T08:41:15;3.83;;;2.30;;
55146;SDS011;41039;49.830;23.988;2024-01-15T08:43:40;3.50;;;1.98;;
55146;SDS011;41039;49.830;23.988;2024-01-15T08:46:05;3.35;;;2.00;;
55146;SDS011;41039;49.830;23.988;2024-01-15T08:48:31;4.30;;;1.98;;
55146;SDS011;41039;49.830;23.988;2024-01-15T08:50:56;3.58;;;2.22;;
55146;SDS011;41039;49.830;23.988;2024-01-15T08:53:22;3.97;;;2.30;;
55146;SDS011;41039;49.830;23.988;2024-01-15T08:55:47;3.25;;;2.15;;
55146;SDS011;41039;49.830;23.988;2024-01-15T08:58:13;3.65;;;1.92;;
55146;SDS011;41039;49.830;23.988;2024-01-15T09:00:38;5.18;;;2.65;;
55146;SDS011;41039;49.830;23.988;2024-01-15T09:03:03;3.70;;;2.27;;
55146;SDS011;41039;49.830;23.988;2024-01-15T09:05:28;4.57;;;2.08;;
55146;SDS011;41039;49.830;23.988;2024-01-15T09:07:54;3.13;;;1.90;;
55146;SDS011;41039;49.830;23.988;2024-01-15T09:10:19;3.08;;;2.10;;
55146;SDS011;41039;49.830;23.988;2024-01-15T09:12:45;3.13;;;1.88;;
55146;SDS011;41039;49.830;23.988;2024-01-15T09:15:10;3.65;;;2.42;;
55146;SDS011;41039;49.830;23.988;2024-01-15T09:17:35;3.33;;;2.20;;
55146;SDS011;41039;49.830;23.988;2024-01-15T09:20:01;2.78;;;2.10;;
55146;SDS011;41039;49.830;23.988;2024-01-15T09:22:26;2.83;;;1.98;;
55146;SDS011;41039;49.830;23.988;2024-01-15T09:24:52;2.43;;;1.70;;
55146;SDS011;41039;49.830;23.988;2024-01-15T09:27:17;5.43;;;1.90;;
55146;SDS011;41039;49.830;23.988;2024-01-15T09:29:42;2.35;;;1.80;;
55146;SDS011;41039;49.830;23.988;2024-01-15T09:32:10;2.75;;;1.70;;
55146;SDS011;41039;49.830;23.988;2024-01-15T09:34:35;3.58;;;2.05;;
55146;SDS011;41039;49.830;23.988;2024-01-15T09:37:01;4.40;;;2.38;;
55146;SDS011;41039;49.830;23.988;2024-01-15T09:39:27;3.22;;;2.33;;
55146;SDS011;41039;49.830;23.988;2024-01-15T09:41:52;3.10;;;2.05;;
55146;SDS011;41039;49.830;23.988;2024-01-15T09:44:18;2.40;;;1.70;;
55146;SDS011;41039;49.830;23.988;2024-01-15T09:46:44;2.97;;;2.05;;
55146;SDS011;41039;49.830;23.988;2024-01-15T09:49:10;2.90;;;1.98;;
55146;SDS011;41039;49.830;23.988;2024-01-15T09:51:35;2.88;;;2.03;;
55146;SDS011;41039;49.830;23.988;2024-01-15T09:54:01;2.83;;;1.85;;
55146;SDS011;41039;49.830;23.988;2024-01-15T09:56:27;2.90;;;2.00;;
55146;SDS011;41039;49.830;23.988;2024-01-15T09:58:52;2.70;;;1.92;;
55146;SDS011;41039;49.830;23.988;2024-01-15T10:01:17;2.30;;;1.70;;
55146;SDS011;41039;49.830;23.988;2024-01-15T10:03:44;2.50;;;1.85;;
55146;SDS011;41039;49.830;23.988;2024-01-15T10:06:10;3.00;;;1.92;;
55146;SDS011;41039;49.830;23.988;2024-01-15T10:08:36;4.30;;;2.40;;
55146;SDS011;41039;49.830;23.988;2024-01-15T10:11:02;3.13;;;2.00;;
55146;SDS011;41039;49.830;23.988;2024-01-15T10:13:28;2.95;;;1.95;;
55146;SDS011;41039;49.830;23.988;2024-01-15T10:15:55;2.88;;;1.80;;
55146;SDS011;41039;49.830;23.988;2024-01-15T10:18:20;2.67;;;1.70;;
55146;SDS011;41039;49.830;23.988;2024-01-15T10:20:45;3.70;;;1.93;;
55146;SDS011;41039;49.830;23.988;2024-01-15T10:23:11;2.60;;;1.92;;
55146;SDS011;41039;49.830;23.988;2024-01-15T10:25:36;3.42;;;2.10;;
55146;SDS011;41039;49.830;23.988;2024-01-15T10:28:03;4.60;;;1.97;;
55146;SDS011;41039;49.830;23.988;2024-01-15T10:30:28;3.10;;;1.98;;
55146;SDS011;41039;49.830;23.988;2024-01-15T10:32:57;2.60;;;1.85;;
55146;SDS011;41039;49.830;23.988;2024-01-15T10:35:25;3.47;;;1.60;;
55146;SDS011;41039;49.830;23.988;2024-01-15T10:37:51;5.57;;;2.28;;
55146;SDS011;41039;49.830;23.988;2024-01-15T10:40:16;4.15;;;2.35;;
55146;SDS011;41039;49.830;23.988;2024-01-15T10:42:43;3.90;;;2.13;;
55146;SDS011;41039;49.830;23.988;2024-01-15T10:45:09;3.28;;;1.75;;
55146;SDS011;41039;49.830;23.988;2024-01-15T10:47:34;3.15;;;1.85;;
55146;SDS011;41039;49.830;23.988;2024-01-15T10:50:00;2.70;;;1.92;;
55146;SDS011;41039;49.830;23.988;2024-01-15T10:52:26;3.10;;;1.88;;
55146;SDS011;41039;49.830;23.988;2024-01-15T10:54:52;3.65;;;2.40;;
55146;SDS011;41039;49.830;23.988;2024-01-15T10:57:18;3.00;;;2.08;;
55146;SDS011;41039;49.830;23.988;2024-01-15T10:59:43;3.58;;;2.22;;
55146;SDS011;41039;49.830;23.988;2024-01-15T11:02:09;4.53;;;2.00;;
55146;SDS011;41039;49.830;23.988;2024-01-15T11:04:35;4.05;;;2.10;;
55146;SDS011;41039;49.830;23.988;2024-01-15T11:07:01;3.15;;;2.42;;
55146;SDS011;41039;49.830;23.988;2024-01-15T11:09:27;2.88;;;1.90;;
55146;SDS011;41039;49.830;23.988;2024-01-15T11:12:10;2.70;;;2.00;;
55146;SDS011;41039;49.830;23.988;2024-01-15T11:14:39;3.17;;;2.00;;
55146;SDS011;41039;49.830;23.988;2024-01-15T11:17:04;2.70;;;1.92;;
55146;SDS011;41039;49.830;23.988;2024-01-15T11:20:05;3.17;;;2.15;;
55146;SDS011;41039;49.830;23.988;2024-01-15T11:25:41;3.15;;;2.15;;
55146;SDS011;41039;49.830;23.988;2024-01-15T11:27:49;3.15;;;2.20;;
55146;SDS011;41039;49.830;23.988;2024-01-15T11:30:18;3.78;;;2.28;;
55146;SDS011;41039;49.830;23.988;2024-01-15T11:32:45;3.55;;;2.15;;
55146;SDS011;41039;49.830;23.988;2024-01-15T11:35:11;3.58;;;2.40;;
55146;SDS011;41039;49.830;23.988;2024-01-15T11:40:19;4.18;;;2.42;;
55146;SDS011;41039;49.830;23.988;2024-01-15T11:42:45;2.67;;;2.17;;
55146;SDS011;41039;49.830;23.988;2024-01-15T11:45:11;4.43;;;2.42;;
55146;SDS011;41039;49.830;23.988;2024-01-15T11:47:48;3.08;;;2.13;;
55146;SDS011;41039;49.830;23.988;2024-01-15T11:50:19;3.47;;;2.35;;
55146;SDS011;41039;49.830;23.988;2024-01-15T11:52:48;3.20;;;2.30;;
55146;SDS011;41039;49.830;23.988;2024-01-15T11:55:34;2.85;;;2.03;;
55146;SDS011;41039;49.830;23.988;2024-01-15T11:58:00;3.00;;;2.38;;
55146;SDS011;41039;49.830;23.988;2024-01-15T12:00:26;3.65;;;2.50;;
55146;SDS011;41039;49.830;23.988;2024-01-15T12:02:51;3.00;;;1.92;;
55146;SDS011;41039;49.830;23.988;2024-01-15T12:05:17;2.63;;;2.03;;
55146;SDS011;41039;49.830;23.988;2024-01-15T12:07:43;2.78;;;1.95;;
55146;SDS011;41039;49.830;23.988;2024-01-15T12:10:12;3.30;;;1.90;;
55146;SDS011;41039;49.830;23.988;2024-01-15T12:12:52;3.22;;;2.20;;
55146;SDS011;41039;49.830;23.988;2024-01-15T12:15:18;3.00;;;2.10;;
55146;SDS011;41039;49.830;23.988;2024-01-15T12:17:44;2.40;;;1.80;;
55146;SDS011;41039;49.830;23.988;2024-01-15T12:20:10;3.85;;;2.28;;
55146;SDS011;41039;49.830;23.988;2024-01-15T12:22:35;2.97;;;2.38;;
55146;SDS011;41039;49.830;23.988;2024-01-15T12:25:01;2.85;;;1.98;;
55146;SDS011;41039;49.830;23.988;2024-01-15T12:27:26;3.40;;;2.47;;
55146;SDS011;41039;49.830;23.988;2024-01-15T12:29:55;4.68;;;3.33;;
55146;SDS011;41039;49.830;23.988;2024-01-15T12:32:20;4.60;;;2.75;;
55146;SDS011;41039;49.830;23.988;2024-01-15T12:34:48;4.55;;;3.28;;
55146;SDS011;41039;49.830;23.988;2024-01-15T12:37:15;5.10;;;3.50;;
55146;SDS011;41039;49.830;23.988;2024-01-15T12:39:42;4.45;;;3.38;;
55146;SDS011;41039;49.830;23.988;2024-01-15T12:42:07;4.70;;;3.53;;
55146;SDS011;41039;49.830;23.988;2024-01-15T12:44:33;4.30;;;3.35;;
55146;SDS011;41039;49.830;23.988;2024-01-15T12:46:58;4.30;;;3.40;;
55146;SDS011;41039;49.830;23.988;2024-01-15T12:49:24;5.00;;;3.88;;
55146;SDS011;41039;49.830;23.988;2024-01-15T12:51:53;4.78;;;3.90;;
55146;SDS011;41039;49.830;23.988;2024-01-15T12:54:18;4.75;;;3.83;;
55146;SDS011;41039;49.830;23.988;2024-01-15T12:56:44;6.70;;;4.50;;
55146;SDS011;41039;49.830;23.988;2024-01-15T12:59:09;6.00;;;4.70;;
55146;SDS011;41039;49.830;23.988;2024-01-15T13:01:34;5.87;;;4.17;;
55146;SDS011;41039;49.830;23.988;2024-01-15T13:04:01;4.45;;;4.05;;
55146;SDS011;41039;49.830;23.988;2024-01-15T13:06:26;6.95;;;4.65;;
55146;SDS011;41039;49.830;23.988;2024-01-15T13:08:51;5.45;;;4.70;;
55146;SDS011;41039;49.830;23.988;2024-01-15T13:11:16;5.40;;;4.80;;
55146;SDS011;41039;49.830;23.988;2024-01-15T13:13:42;5.55;;;4.50;;
55146;SDS011;41039;49.830;23.988;2024-01-15T13:16:08;5.95;;;4.75;;
55146;SDS011;41039;49.830;23.988;2024-01-15T13:18:34;6.38;;;4.90;;
55146;SDS011;41039;49.830;23.988;2024-01-15T13:20:59;4.78;;;4.28;;
55146;SDS011;41039;49.830;23.988;2024-01-15T13:23:25;6.05;;;5.45;;
55146;SDS011;41039;49.830;23.988;2024-01-15T13:25:50;5.60;;;4.90;;
55146;SDS011;41039;49.830;23.988;2024-01-15T13:28:15;5.55;;;4.78;;
55146;SDS011;41039;49.830;23.988;2024-01-15T13:30:41;6.80;;;5.33;;
55146;SDS011;41039;49.830;23.988;2024-01-15T13:33:06;7.17;;;6.00;;
55146;SDS011;41039;49.830;23.988;2024-01-15T13:35:31;6.70;;;5.78;;
55146;SDS011;41039;49.830;23.988;2024-01-15T13:37:57;6.70;;;5.88;;
55146;SDS011;41039;49.830;23.988;2024-01-15T13:40:23;7.25;;;5.47;;
55146;SDS011;41039;49.830;23.988;2024-01-15T13:42:48;9.57;;;6.23;;
55146;SDS011;41039;49.830;23.988;2024-01-15T13:45:13;7.28;;;5.43;;
55146;SDS011;41039;49.830;23.988;2024-01-15T13:47:39;7.00;;;5.63;;
55146;SDS011;41039;49.830;23.988;2024-01-15T13:50:05;6.03;;;4.88;;
55146;SDS011;41039;49.830;23.988;2024-01-15T13:52:30;5.43;;;4.72;;
55146;SDS011;41039;49.830;23.988;2024-01-15T13:54:56;5.47;;;4.45;;
55146;SDS011;41039;49.830;23.988;2024-01-15T13:57:21;6.70;;;4.77;;
55146;SDS011;41039;49.830;23.988;2024-01-15T13:59:47;5.05;;;4.18;;
55146;SDS011;41039;49.830;23.988;2024-01-15T14:02:14;4.97;;;4.22;;
55146;SDS011;41039;49.830;23.988;2024-01-15T14:04:39;7.97;;;4.22;;
55146;SDS011;41039;49.830;23.988;2024-01-15T14:07:04;5.70;;;4.20;;
55146;SDS011;41039;49.830;23.988;2024-01-15T14:09:30;5.10;;;3.72;;
55146;SDS011;41039;49.830;23.988;2024-01-15T14:11:56;5.53;;;4.00;;
55146;SDS011;41039;49.830;23.988;2024-01-15T14:14:21;4.33;;;3.60;;
55146;SDS011;41039;49.830;23.988;2024-01-15T14:16:47;4.67;;;3.53;;
55146;SDS011;41039;49.830;23.988;2024-01-15T14:19:12;5.93;;;3.95;;
55146;SDS011;41039;49.830;23.988;2024-01-15T14:21:37;5.63;;;3.93;;
55146;SDS011;41039;49.830;23.988;2024-01-15T14:24:03;4.70;;;4.00;;
55146;SDS011;41039;49.830;23.988;2024-01-15T14:26:28;5.00;;;3.97;;
55146;SDS011;41039;49.830;23.988;2024-01-15T14:28:54;4.40;;;3.50;;